sensor_id;sensor_type;location;lat;lon;timestamp;P1;durP1;ratioP1;P2;durP2;ratioP2
10641;SDS011;5369;49.586;8.646;2022-10-16T00:00:39;3.97;;;3.30;;
10641;SDS011;5369;49.586;8.646;2022-10-16T00:03:06;3.53;;;2.87;;
10641;SDS011;5369;49.586;8.646;2022-10-16T00:05:37;3.03;;;2.73;;
10641;SDS011;5369;49.586;8.646;2022-10-16T00:08:07;3.57;;;2.53;;
10641;SDS011;5369;49.586;8.646;2022-10-16T00:10:34;3.33;;;3.03;;
10641;SDS011;5369;49.586;8.646;2022-10-16T00:13:00;3.93;;;3.00;;
10641;SDS011;5369;49.586;8.646;2022-10-16T00:15:26;4.07;;;2.80;;
10641;SDS011;5369;49.586;8.646;2022-10-16T00:17:52;3.23;;;2.73;;
10641;SDS011;5369;49.586;8.646;2022-10-16T00:20:17;4.40;;;2.90;;
10641;SDS011;5369;49.586;8.646;2022-10-16T00:23:02;3.20;;;2.90;;
10641;SDS011;5369;49.586;8.646;2022-10-16T00:25:30;2.93;;;2.67;;
10641;SDS011;5369;49.586;8.646;2022-10-16T00:27:58;2.60;;;2.40;;
10641;SDS011;5369;49.586;8.646;2022-10-16T00:30:25;4.13;;;3.57;;
10641;SDS011;5369;49.586;8.646;2022-10-16T00:32:52;5.30;;;4.53;;
10641;SDS011;5369;49.586;8.646;2022-10-16T00:35:18;5.17;;;4.00;;
10641;SDS011;5369;49.586;8.646;2022-10-16T00:37:44;4.97;;;4.27;;
10641;SDS011;5369;49.586;8.646;2022-10-16T00:40:10;4.83;;;4.33;;
10641;SDS011;5369;49.586;8.646;2022-10-16T00:42:36;4.37;;;3.97;;
10641;SDS011;5369;49.586;8.646;2022-10-16T00:45:02;6.13;;;3.97;;
10641;SDS011;5369;49.586;8.646;2022-10-16T00:47:31;6.00;;;4.00;;
10641;SDS011;5369;49.586;8.646;2022-10-16T00:50:02;4.80;;;3.63;;
10641;SDS011;5369;49.586;8.646;2022-10-16T00:52:53;5.90;;;4.17;;
10641;SDS011;5369;49.586;8.646;2022-10-16T00:55:20;6.60;;;4.13;;
10641;SDS011;5369;49.586;8.646;2022-10-16T00:57:47;8.47;;;4.53;;
10641;SDS011;5369;49.586;8.646;2022-10-16T01:00:16;5.93;;;3.80;;
10641;SDS011;5369;49.586;8.646;2022-10-16T01:02:44;6.00;;;3.57;;
10641;SDS011;5369;49.586;8.646;2022-10-16T01:05:16;4.33;;;3.17;;
10641;SDS011;5369;49.586;8.646;2022-10-16T01:07:56;3.93;;;3.07;;
10641;SDS011;5369;49.586;8.646;2022-10-16T01:13:00;3.30;;;2.50;;
10641;SDS011;5369;49.586;8.646;2022-10-16T01:15:35;3.47;;;2.70;;
10641;SDS011;5369;49.586;8.646;2022-10-16T01:18:28;3.50;;;2.77;;
10641;SDS011;5369;49.586;8.646;2022-10-16T01:29:37;3.50;;;2.20;;
10641;SDS011;5369;49.586;8.646;2022-10-16T01:32:24;3.03;;;2.60;;
10641;SDS011;5369;49.586;8.646;2022-10-16T01:34:58;5.87;;;2.27;;
10641;SDS011;5369;49.586;8.646;2022-10-16T01:40:13;3.57;;;2.10;;
10641;SDS011;5369;49.586;8.646;2022-10-16T01:42:43;3.83;;;2.33;;
10641;SDS011;5369;49.586;8.646;2022-10-16T01:45:13;5.20;;;2.20;;
10641;SDS011;5369;49.586;8.646;2022-10-16T01:47:43;2.37;;;2.00;;
10641;SDS011;5369;49.586;8.646;2022-10-16T01:50:09;3.57;;;1.97;;
10641;SDS011;5369;49.586;8.646;2022-10-16T01:52:37;3.90;;;1.97;;
10641;SDS011;5369;49.586;8.646;2022-10-16T01:55:07;3.43;;;1.90;;
10641;SDS011;5369;49.586;8.646;2022-10-16T01:57:36;2.50;;;2.10;;
10641;SDS011;5369;49.586;8.646;2022-10-16T02:00:07;5.30;;;2.30;;
10641;SDS011;5369;49.586;8.646;2022-10-16T02:02:38;3.23;;;2.03;;
10641;SDS011;5369;49.586;8.646;2022-10-16T02:05:26;3.10;;;2.30;;
10641;SDS011;5369;49.586;8.646;2022-10-16T02:08:11;3.33;;;2.70;;
10641;SDS011;5369;49.586;8.646;2022-10-16T02:10:38;3.73;;;2.00;;
10641;SDS011;5369;49.586;8.646;2022-10-16T02:13:16;3.00;;;2.03;;
10641;SDS011;5369;49.586;8.646;2022-10-16T02:15:47;3.33;;;2.30;;
10641;SDS011;5369;49.586;8.646;2022-10-16T02:18:13;4.27;;;2.10;;
10641;SDS011;5369;49.586;8.646;2022-10-16T02:20:48;3.87;;;2.20;;
10641;SDS011;5369;49.586;8.646;2022-10-16T02:23:23;3.83;;;2.10;;
10641;SDS011;5369;49.586;8.646;2022-10-16T02:25:55;2.30;;;2.10;;
10641;SDS011;5369;49.586;8.646;2022-10-16T02:28:28;3.27;;;2.10;;
10641;SDS011;5369;49.586;8.646;2022-10-16T02:31:08;2.37;;;1.90;;
10641;SDS011;5369;49.586;8.646;2022-10-16T02:33:37;2.30;;;2.10;;
10641;SDS011;5369;49.586;8.646;2022-10-16T02:36:05;4.03;;;2.10;;
10641;SDS011;5369;49.586;8.646;2022-10-16T02:38:31;2.63;;;1.90;;
10641;SDS011;5369;49.586;8.646;2022-10-16T02:40:58;4.50;;;1.70;;
10641;SDS011;5369;49.586;8.646;2022-10-16T02:43:24;4.10;;;1.90;;
10641;SDS011;5369;49.586;8.646;2022-10-16T02:45:51;5.47;;;2.20;;
10641;SDS011;5369;49.586;8.646;2022-10-16T02:48:16;3.20;;;1.80;;
10641;SDS011;5369;49.586;8.646;2022-10-16T02:50:42;3.07;;;1.80;;
10641;SDS011;5369;49.586;8.646;2022-10-16T02:53:08;3.30;;;1.70;;
10641;SDS011;5369;49.586;8.646;2022-10-16T02:55:34;2.27;;;1.70;;
10641;SDS011;5369;49.586;8.646;2022-10-16T02:57:59;4.10;;;2.00;;
10641;SDS011;5369;49.586;8.646;2022-10-16T03:00:25;1.93;;;1.83;;
10641;SDS011;5369;49.586;8.646;2022-10-16T03:02:51;2.07;;;1.90;;
10641;SDS011;5369;49.586;8.646;2022-10-16T03:05:16;2.10;;;1.80;;
10641;SDS011;5369;49.586;8.646;2022-10-16T03:07:43;3.00;;;2.30;;
10641;SDS011;5369;49.586;8.646;2022-10-16T03:10:09;2.33;;;1.80;;
10641;SDS011;5369;49.586;8.646;2022-10-16T03:12:34;2.23;;;1.90;;
10641;SDS011;5369;49.586;8.646;2022-10-16T03:15:00;2.27;;;1.93;;
10641;SDS011;5369;49.586;8.646;2022-10-16T03:17:26;2.40;;;1.90;;
10641;SDS011;5369;49.586;8.646;2022-10-16T03:19:52;2.67;;;2.10;;
10641;SDS011;5369;49.586;8.646;2022-10-16T03:22:17;2.10;;;1.90;;
10641;SDS011;5369;49.586;8.646;2022-10-16T03:24:43;2.47;;;2.00;;
10641;SDS011;5369;49.586;8.646;2022-10-16T03:27:09;3.27;;;2.17;;
10641;SDS011;5369;49.586;8.646;2022-10-16T03:29:34;2.70;;;2.30;;
10641;SDS011;5369;49.586;8.646;2022-10-16T03:32:00;2.17;;;1.97;;
10641;SDS011;5369;49.586;8.646;2022-10-16T03:34:27;2.23;;;2.03;;
10641;SDS011;5369;49.586;8.646;2022-10-16T03:36:53;2.20;;;2.00;;
10641;SDS011;5369;49.586;8.646;2022-10-16T03:39:19;2.00;;;1.80;;
10641;SDS011;5369;49.586;8.646;2022-10-16T03:41:45;2.87;;;2.10;;
10641;SDS011;5369;49.586;8.646;2022-10-16T03:44:11;3.10;;;1.93;;
10641;SDS011;5369;49.586;8.646;2022-10-16T03:46:38;6.30;;;2.23;;
10641;SDS011;5369;49.586;8.646;2022-10-16T03:49:03;4.10;;;1.93;;
10641;SDS011;5369;49.586;8.646;2022-10-16T03:51:29;3.03;;;2.00;;
10641;SDS011;5369;49.586;8.646;2022-10-16T03:53:55;2.63;;;2.30;;
10641;SDS011;5369;49.586;8.646;2022-10-16T03:56:21;4.23;;;1.90;;
10641;SDS011;5369;49.586;8.646;2022-10-16T03:58:47;3.53;;;2.20;;
10641;SDS011;5369;49.586;8.646;2022-10-16T04:01:12;2.23;;;2.03;;
10641;SDS011;5369;49.586;8.646;2022-10-16T04:03:38;2.50;;;1.97;;
10641;SDS011;5369;49.586;8.646;2022-10-16T04:06:04;2.33;;;2.13;;
10641;SDS011;5369;49.586;8.646;2022-10-16T04:08:30;3.77;;;2.20;;
10641;SDS011;5369;49.586;8.646;2022-10-16T04:10:56;4.60;;;2.47;;
10641;SDS011;5369;49.586;8.646;2022-10-16T04:13:21;3.10;;;2.10;;
10641;SDS011;5369;49.586;8.646;2022-10-16T04:15:47;2.57;;;2.30;;
10641;SDS011;5369;49.586;8.646;2022-10-16T04:18:13;5.37;;;2.20;;
10641;SDS011;5369;49.586;8.646;2022-10-16T04:20:38;3.83;;;2.23;;
10641;SDS011;5369;49.586;8.646;2022-10-16T04:23:04;3.10;;;2.70;;
10641;SDS011;5369;49.586;8.646;2022-10-16T04:25:30;2.37;;;2.17;;
10641;SDS011;5369;49.586;8.646;2022-10-16T04:27:56;2.80;;;2.10;;
10641;SDS011;5369;49.586;8.646;2022-10-16T04:30:22;4.43;;;2.47;;
10641;SDS011;5369;49.586;8.646;2022-10-16T04:32:49;3.80;;;2.70;;
10641;SDS011;5369;49.586;8.646;2022-10-16T04:35:15;2.80;;;2.40;;
10641;SDS011;5369;49.586;8.646;2022-10-16T04:37:42;3.30;;;2.67;;
10641;SDS011;5369;49.586;8.646;2022-10-16T04:40:08;5.07;;;2.70;;
10641;SDS011;5369;49.586;8.646;2022-10-16T04:42:34;4.17;;;2.60;;
10641;SDS011;5369;49.586;8.646;2022-10-16T04:45:00;2.63;;;2.10;;
10641;SDS011;5369;49.586;8.646;2022-10-16T04:47:25;2.47;;;2.20;;
10641;SDS011;5369;49.586;8.646;2022-10-16T04:49:51;3.87;;;2.70;;
10641;SDS011;5369;49.586;8.646;2022-10-16T04:52:17;3.63;;;2.50;;
10641;SDS011;5369;49.586;8.646;2022-10-16T04:54:44;3.00;;;2.70;;
10641;SDS011;5369;49.586;8.646;2022-10-16T04:57:10;4.20;;;3.27;;
10641;SDS011;5369;49.586;8.646;2022-10-16T04:59:36;3.40;;;2.90;;
10641;SDS011;5369;49.586;8.646;2022-10-16T05:02:02;5.27;;;3.20;;
10641;SDS011;5369;49.586;8.646;2022-10-16T05:04:28;3.10;;;2.70;;
10641;SDS011;5369;49.586;8.646;2022-10-16T05:06:54;3.30;;;2.17;;
10641;SDS011;5369;49.586;8.646;2022-10-16T05:09:19;2.57;;;2.30;;
10641;SDS011;5369;49.586;8.646;2022-10-16T05:11:45;2.77;;;2.03;;
10641;SDS011;5369;49.586;8.646;2022-10-16T05:14:11;2.43;;;2.20;;
10641;SDS011;5369;49.586;8.646;2022-10-16T05:16:37;2.40;;;2.20;;
10641;SDS011;5369;49.586;8.646;2022-10-16T05:19:02;3.70;;;2.30;;
10641;SDS011;5369;49.586;8.646;2022-10-16T05:21:28;4.50;;;2.00;;
10641;SDS011;5369;49.586;8.646;2022-10-16T05:23:54;2.87;;;2.40;;
10641;SDS011;5369;49.586;8.646;2022-10-16T05:26:20;4.50;;;1.97;;
10641;SDS011;5369;49.586;8.646;2022-10-16T05:28:46;2.20;;;2.00;;
10641;SDS011;5369;49.586;8.646;2022-10-16T05:31:14;2.40;;;2.10;;
10641;SDS011;5369;49.586;8.646;2022-10-16T05:33:39;2.23;;;2.03;;
10641;SDS011;5369;49.586;8.646;2022-10-16T05:36:06;3.90;;;2.13;;
10641;SDS011;5369;49.586;8.646;2022-10-16T05:38:34;2.23;;;2.03;;
10641;SDS011;5369;49.586;8.646;2022-10-16T05:41:01;2.30;;;2.10;;
10641;SDS011;5369;49.586;8.646;2022-10-16T05:43:27;3.40;;;2.30;;
10641;SDS011;5369;49.586;8.646;2022-10-16T05:45:54;3.03;;;2.20;;
10641;SDS011;5369;49.586;8.646;2022-10-16T05:48:21;2.63;;;2.43;;
10641;SDS011;5369;49.586;8.646;2022-10-16T05:50:47;2.40;;;2.05;;
10641;SDS011;5369;49.586;8.646;2022-10-16T05:53:13;2.27;;;2.07;;
10641;SDS011;5369;49.586;8.646;2022-10-16T05:55:39;2.60;;;2.20;;
10641;SDS011;5369;49.586;8.646;2022-10-16T05:58:05;2.87;;;1.70;;
10641;SDS011;5369;49.586;8.646;2022-10-16T06:00:30;3.20;;;2.00;;
10641;SDS011;5369;49.586;8.646;2022-10-16T06:02:56;2.97;;;1.87;;
10641;SDS011;5369;49.586;8.646;2022-10-16T06:05:22;2.30;;;2.10;;
10641;SDS011;5369;49.586;8.646;2022-10-16T06:07:47;2.77;;;2.03;;
10641;SDS011;5369;49.586;8.646;2022-10-16T06:10:13;2.67;;;2.20;;
10641;SDS011;5369;49.586;8.646;2022-10-16T06:12:39;3.90;;;2.47;;
10641;SDS011;5369;49.586;8.646;2022-10-16T06:15:05;2.33;;;2.10;;
10641;SDS011;5369;49.586;8.646;2022-10-16T06:17:31;3.33;;;2.30;;
10641;SDS011;5369;49.586;8.646;2022-10-16T06:19:56;3.13;;;2.40;;
10641;SDS011;5369;49.586;8.646;2022-10-16T06:22:22;2.17;;;1.93;;
10641;SDS011;5369;49.586;8.646;2022-10-16T06:24:48;4.20;;;2.30;;
10641;SDS011;5369;49.586;8.646;2022-10-16T06:27:14;2.33;;;2.13;;
10641;SDS011;5369;49.586;8.646;2022-10-16T06:29:40;2.00;;;1.90;;
10641;SDS011;5369;49.586;8.646;2022-10-16T06:32:08;3.00;;;1.90;;
10641;SDS011;5369;49.586;8.646;2022-10-16T06:34:34;2.93;;;2.27;;
10641;SDS011;5369;49.586;8.646;2022-10-16T06:37:00;2.53;;;2.20;;
10641;SDS011;5369;49.586;8.646;2022-10-16T06:39:26;3.93;;;2.40;;
10641;SDS011;5369;49.586;8.646;2022-10-16T06:41:51;4.53;;;1.90;;
10641;SDS011;5369;49.586;8.646;2022-10-16T06:44:17;2.20;;;2.00;;
10641;SDS011;5369;49.586;8.646;2022-10-16T06:46:43;3.53;;;2.10;;
10641;SDS011;5369;49.586;8.646;2022-10-16T06:49:09;3.30;;;2.00;;
10641;SDS011;5369;49.586;8.646;2022-10-16T06:51:34;4.87;;;2.20;;
10641;SDS011;5369;49.586;8.646;2022-10-16T06:54:01;3.17;;;2.30;;
10641;SDS011;5369;49.586;8.646;2022-10-16T06:56:28;3.97;;;2.70;;
10641;SDS011;5369;49.586;8.646;2022-10-16T06:58:55;3.43;;;3.10;;
10641;SDS011;5369;49.586;8.646;2022-10-16T07:01:22;3.67;;;3.00;;
10641;SDS011;5369;49.586;8.646;2022-10-16T07:03:49;3.40;;;3.00;;
10641;SDS011;5369;49.586;8.646;2022-10-16T07:06:16;6.27;;;3.40;;
10641;SDS011;5369;49.586;8.646;2022-10-16T07:08:44;4.47;;;3.00;;
10641;SDS011;5369;49.586;8.646;2022-10-16T07:11:12;5.47;;;3.07;;
10641;SDS011;5369;49.586;8.646;2022-10-16T07:13:48;3.73;;;3.20;;
10641;SDS011;5369;49.586;8.646;2022-10-16T07:16:16;4.33;;;2.80;;
10641;SDS011;5369;49.586;8.646;2022-10-16T07:18:43;4.50;;;2.87;;
10641;SDS011;5369;49.586;8.646;2022-10-16T07:21:12;5.37;;;3.13;;
10641;SDS011;5369;49.586;8.646;2022-10-16T07:23:40;6.90;;;3.43;;
10641;SDS011;5369;49.586;8.646;2022-10-16T07:26:06;3.37;;;3.07;;
10641;SDS011;5369;49.586;8.646;2022-10-16T07:28:33;6.63;;;3.67;;
10641;SDS011;5369;49.586;8.646;2022-10-16T07:31:03;4.50;;;3.23;;
10641;SDS011;5369;49.586;8.646;2022-10-16T07:33:31;4.13;;;3.10;;
10641;SDS011;5369;49.586;8.646;2022-10-16T07:35:58;4.80;;;3.20;;
10641;SDS011;5369;49.586;8.646;2022-10-16T07:38:24;4.30;;;2.77;;
10641;SDS011;5369;49.586;8.646;2022-10-16T07:40:57;5.27;;;2.50;;
10641;SDS011;5369;49.586;8.646;2022-10-16T07:43:29;2.53;;;2.30;;
10641;SDS011;5369;49.586;8.646;2022-10-16T07:45:56;2.63;;;1.93;;
10641;SDS011;5369;49.586;8.646;2022-10-16T07:48:22;3.77;;;1.80;;
10641;SDS011;5369;49.586;8.646;2022-10-16T07:50:49;2.30;;;2.10;;
10641;SDS011;5369;49.586;8.646;2022-10-16T07:53:15;2.47;;;1.90;;
10641;SDS011;5369;49.586;8.646;2022-10-16T07:55:41;2.67;;;2.33;;
10641;SDS011;5369;49.586;8.646;2022-10-16T07:58:06;4.53;;;3.60;;
10641;SDS011;5369;49.586;8.646;2022-10-16T08:00:32;4.90;;;3.30;;
10641;SDS011;5369;49.586;8.646;2022-10-16T08:02:59;3.10;;;2.33;;
10641;SDS011;5369;49.586;8.646;2022-10-16T08:05:26;2.63;;;2.07;;
10641;SDS011;5369;49.586;8.646;2022-10-16T08:07:52;4.80;;;2.00;;
10641;SDS011;5369;49.586;8.646;2022-10-16T08:10:19;4.67;;;2.00;;
10641;SDS011;5369;49.586;8.646;2022-10-16T08:12:46;3.63;;;2.00;;
10641;SDS011;5369;49.586;8.646;2022-10-16T08:15:12;2.70;;;2.00;;
10641;SDS011;5369;49.586;8.646;2022-10-16T08:17:37;2.30;;;2.10;;
10641;SDS011;5369;49.586;8.646;2022-10-16T08:20:04;4.97;;;2.30;;
10641;SDS011;5369;49.586;8.646;2022-10-16T08:22:30;3.07;;;2.40;;
10641;SDS011;5369;49.586;8.646;2022-10-16T08:24:56;3.97;;;2.07;;
10641;SDS011;5369;49.586;8.646;2022-10-16T08:27:22;3.93;;;2.60;;
10641;SDS011;5369;49.586;8.646;2022-10-16T08:29:48;4.10;;;2.40;;
10641;SDS011;5369;49.586;8.646;2022-10-16T08:32:14;4.30;;;2.20;;
10641;SDS011;5369;49.586;8.646;2022-10-16T08:34:40;4.10;;;2.17;;
10641;SDS011;5369;49.586;8.646;2022-10-16T08:37:06;3.90;;;2.00;;
10641;SDS011;5369;49.586;8.646;2022-10-16T08:39:33;4.00;;;2.33;;
10641;SDS011;5369;49.586;8.646;2022-10-16T08:45:08;3.50;;;2.23;;
10641;SDS011;5369;49.586;8.646;2022-10-16T08:47:56;4.43;;;2.70;;
10641;SDS011;5369;49.586;8.646;2022-10-16T08:50:44;3.60;;;2.30;;
10641;SDS011;5369;49.586;8.646;2022-10-16T08:53:18;6.67;;;2.37;;
10641;SDS011;5369;49.586;8.646;2022-10-16T08:55:52;3.10;;;2.13;;
10641;SDS011;5369;49.586;8.646;2022-10-16T08:58:19;5.53;;;2.63;;
10641;SDS011;5369;49.586;8.646;2022-10-16T09:00:48;5.80;;;2.90;;
10641;SDS011;5369;49.586;8.646;2022-10-16T09:06:03;5.90;;;3.30;;
10641;SDS011;5369;49.586;8.646;2022-10-16T09:08:53;5.87;;;3.90;;
10641;SDS011;5369;49.586;8.646;2022-10-16T09:11:41;5.97;;;3.67;;
10641;SDS011;5369;49.586;8.646;2022-10-16T09:25:41;3.90;;;2.70;;
10641;SDS011;5369;49.586;8.646;2022-10-16T09:28:09;4.60;;;2.63;;
10641;SDS011;5369;49.586;8.646;2022-10-16T09:30:35;5.13;;;2.57;;
10641;SDS011;5369;49.586;8.646;2022-10-16T09:33:02;4.80;;;2.37;;
10641;SDS011;5369;49.586;8.646;2022-10-16T09:35:36;2.87;;;2.30;;
10641;SDS011;5369;49.586;8.646;2022-10-16T09:38:04;4.73;;;2.77;;
10641;SDS011;5369;49.586;8.646;2022-10-16T09:40:32;5.07;;;3.40;;
10641;SDS011;5369;49.586;8.646;2022-10-16T09:43:20;3.57;;;2.70;;
10641;SDS011;5369;49.586;8.646;2022-10-16T09:46:01;3.93;;;2.60;;
10641;SDS011;5369;49.586;8.646;2022-10-16T09:48:39;4.13;;;3.30;;
10641;SDS011;5369;49.586;8.646;2022-10-16T09:51:17;3.17;;;2.60;;
10641;SDS011;5369;49.586;8.646;2022-10-16T09:53:48;3.87;;;2.30;;
10641;SDS011;5369;49.586;8.646;2022-10-16T09:56:26;2.70;;;2.10;;
10641;SDS011;5369;49.586;8.646;2022-10-16T09:58:55;1.60;;;1.40;;
10641;SDS011;5369;49.586;8.646;2022-10-16T10:01:24;2.10;;;2.00;;
10641;SDS011;5369;49.586;8.646;2022-10-16T10:04:13;1.80;;;1.70;;
10641;SDS011;5369;49.586;8.646;2022-10-16T10:06:46;1.60;;;1.50;;
10641;SDS011;5369;49.586;8.646;2022-10-16T10:11:48;3.77;;;1.70;;
10641;SDS011;5369;49.586;8.646;2022-10-16T10:14:25;2.20;;;2.00;;
10641;SDS011;5369;49.586;8.646;2022-10-16T10:17:02;2.10;;;1.90;;
10641;SDS011;5369;49.586;8.646;2022-10-16T10:19:54;2.83;;;2.03;;
10641;SDS011;5369;49.586;8.646;2022-10-16T10:30:55;2.10;;;1.90;;
10641;SDS011;5369;49.586;8.646;2022-10-16T10:33:54;2.30;;;2.10;;
10641;SDS011;5369;49.586;8.646;2022-10-16T10:36:36;2.23;;;1.90;;
10641;SDS011;5369;49.586;8.646;2022-10-16T10:39:16;2.97;;;1.80;;
10641;SDS011;5369;49.586;8.646;2022-10-16T10:44:27;2.13;;;1.93;;
10641;SDS011;5369;49.586;8.646;2022-10-16T10:47:30;4.83;;;3.07;;
10641;SDS011;5369;49.586;8.646;2022-10-16T10:58:19;4.07;;;2.33;;
10641;SDS011;5369;49.586;8.646;2022-10-16T11:03:46;2.67;;;2.40;;
10641;SDS011;5369;49.586;8.646;2022-10-16T11:06:36;5.03;;;2.30;;
10641;SDS011;5369;49.586;8.646;2022-10-16T11:09:11;3.87;;;2.17;;
10641;SDS011;5369;49.586;8.646;2022-10-16T11:11:46;2.57;;;2.03;;
10641;SDS011;5369;49.586;8.646;2022-10-16T11:14:26;3.13;;;2.40;;
10641;SDS011;5369;49.586;8.646;2022-10-16T11:19:48;2.93;;;2.00;;
10641;SDS011;5369;49.586;8.646;2022-10-16T11:22:34;4.07;;;2.30;;
10641;SDS011;5369;49.586;8.646;2022-10-16T11:25:18;4.87;;;2.07;;
10641;SDS011;5369;49.586;8.646;2022-10-16T11:30:31;2.93;;;2.10;;
10641;SDS011;5369;49.586;8.646;2022-10-16T11:33:22;3.03;;;1.83;;
10641;SDS011;5369;49.586;8.646;2022-10-16T11:38:45;1.93;;;1.73;;
10641;SDS011;5369;49.586;8.646;2022-10-16T11:43:55;3.43;;;1.80;;
10641;SDS011;5369;49.586;8.646;2022-10-16T11:46:45;2.40;;;1.80;;
10641;SDS011;5369;49.586;8.646;2022-10-16T11:49:18;4.33;;;1.90;;
10641;SDS011;5369;49.586;8.646;2022-10-16T11:54:43;2.80;;;1.90;;
10641;SDS011;5369;49.586;8.646;2022-10-16T11:57:17;3.47;;;2.20;;
10641;SDS011;5369;49.586;8.646;2022-10-16T11:59:58;4.43;;;2.00;;
10641;SDS011;5369;49.586;8.646;2022-10-16T12:02:40;4.67;;;2.00;;
10641;SDS011;5369;49.586;8.646;2022-10-16T12:05:28;2.10;;;1.90;;
10641;SDS011;5369;49.586;8.646;2022-10-16T12:08:17;2.30;;;2.10;;
10641;SDS011;5369;49.586;8.646;2022-10-16T12:10:44;4.47;;;2.10;;
10641;SDS011;5369;49.586;8.646;2022-10-16T12:18:38;4.60;;;2.20;;
10641;SDS011;5369;49.586;8.646;2022-10-16T12:21:05;2.43;;;1.60;;
10641;SDS011;5369;49.586;8.646;2022-10-16T12:23:45;5.67;;;2.00;;
10641;SDS011;5369;49.586;8.646;2022-10-16T12:26:13;2.07;;;1.60;;
10641;SDS011;5369;49.586;8.646;2022-10-16T12:29:10;4.27;;;2.00;;
10641;SDS011;5369;49.586;8.646;2022-10-16T12:31:55;4.03;;;2.20;;
10641;SDS011;5369;49.586;8.646;2022-10-16T12:34:22;2.23;;;1.97;;
10641;SDS011;5369;49.586;8.646;2022-10-16T12:36:54;2.47;;;2.27;;
10641;SDS011;5369;49.586;8.646;2022-10-16T12:39:32;3.30;;;1.80;;
10641;SDS011;5369;49.586;8.646;2022-10-16T12:42:02;2.23;;;2.00;;
10641;SDS011;5369;49.586;8.646;2022-10-16T12:44:34;2.10;;;1.90;;
10641;SDS011;5369;49.586;8.646;2022-10-16T12:47:01;3.47;;;2.00;;
10641;SDS011;5369;49.586;8.646;2022-10-16T12:51:54;2.33;;;2.03;;
10641;SDS011;5369;49.586;8.646;2022-10-16T12:54:35;3.07;;;2.07;;
10641;SDS011;5369;49.586;8.646;2022-10-16T13:00:10;2.33;;;1.80;;
10641;SDS011;5369;49.586;8.646;2022-10-16T13:02:43;2.17;;;1.90;;
10641;SDS011;5369;49.586;8.646;2022-10-16T13:08:35;2.37;;;1.83;;
10641;SDS011;5369;49.586;8.646;2022-10-16T13:28:22;1.70;;;1.60;;
10641;SDS011;5369;49.586;8.646;2022-10-16T13:30:54;2.77;;;1.87;;
10641;SDS011;5369;49.586;8.646;2022-10-16T13:33:39;3.27;;;2.07;;
10641;SDS011;5369;49.586;8.646;2022-10-16T13:36:17;2.60;;;1.80;;
10641;SDS011;5369;49.586;8.646;2022-10-16T13:41:37;3.73;;;1.93;;
10641;SDS011;5369;49.586;8.646;2022-10-16T13:44:03;2.40;;;1.90;;
10641;SDS011;5369;49.586;8.646;2022-10-16T13:46:33;4.00;;;2.67;;
10641;SDS011;5369;49.586;8.646;2022-10-16T13:49:10;2.63;;;2.00;;
10641;SDS011;5369;49.586;8.646;2022-10-16T13:51:41;4.07;;;2.20;;
10641;SDS011;5369;49.586;8.646;2022-10-16T13:54:09;2.97;;;2.30;;
10641;SDS011;5369;49.586;8.646;2022-10-16T13:56:38;3.17;;;2.40;;
10641;SDS011;5369;49.586;8.646;2022-10-16T13:59:05;4.17;;;2.10;;
10641;SDS011;5369;49.586;8.646;2022-10-16T14:01:47;2.67;;;2.23;;
10641;SDS011;5369;49.586;8.646;2022-10-16T14:04:13;3.97;;;2.40;;
10641;SDS011;5369;49.586;8.646;2022-10-16T14:06:40;4.07;;;2.20;;
10641;SDS011;5369;49.586;8.646;2022-10-16T14:09:25;2.43;;;1.90;;
10641;SDS011;5369;49.586;8.646;2022-10-16T14:11:54;6.83;;;2.40;;
10641;SDS011;5369;49.586;8.646;2022-10-16T14:14:24;3.40;;;1.90;;
10641;SDS011;5369;49.586;8.646;2022-10-16T14:16:51;4.20;;;2.10;;
10641;SDS011;5369;49.586;8.646;2022-10-16T14:21:46;2.63;;;2.13;;
10641;SDS011;5369;49.586;8.646;2022-10-16T14:24:13;2.27;;;1.90;;
10641;SDS011;5369;49.586;8.646;2022-10-16T14:26:49;4.57;;;2.00;;
10641;SDS011;5369;49.586;8.646;2022-10-16T14:29:19;4.13;;;2.30;;
10641;SDS011;5369;49.586;8.646;2022-10-16T14:31:55;2.40;;;1.97;;
10641;SDS011;5369;49.586;8.646;2022-10-16T14:34:22;2.50;;;2.23;;
10641;SDS011;5369;49.586;8.646;2022-10-16T14:37:00;3.70;;;2.67;;
10641;SDS011;5369;49.586;8.646;2022-10-16T14:39:32;3.20;;;2.30;;
10641;SDS011;5369;49.586;8.646;2022-10-16T14:41:58;2.60;;;2.30;;
10641;SDS011;5369;49.586;8.646;2022-10-16T14:44:33;3.27;;;2.23;;
10641;SDS011;5369;49.586;8.646;2022-10-16T14:47:06;3.10;;;2.53;;
10641;SDS011;5369;49.586;8.646;2022-10-16T14:49:34;3.33;;;2.30;;
10641;SDS011;5369;49.586;8.646;2022-10-16T14:52:00;2.70;;;2.50;;
10641;SDS011;5369;49.586;8.646;2022-10-16T14:54:27;2.80;;;2.60;;
10641;SDS011;5369;49.586;8.646;2022-10-16T14:56:54;4.17;;;2.20;;
10641;SDS011;5369;49.586;8.646;2022-10-16T15:01:52;3.73;;;3.40;;
10641;SDS011;5369;49.586;8.646;2022-10-16T15:04:18;4.90;;;3.57;;
10641;SDS011;5369;49.586;8.646;2022-10-16T15:06:50;4.97;;;3.50;;
10641;SDS011;5369;49.586;8.646;2022-10-16T15:09:23;4.43;;;3.40;;
10641;SDS011;5369;49.586;8.646;2022-10-16T15:11:49;5.47;;;4.60;;
10641;SDS011;5369;49.586;8.646;2022-10-16T15:14:15;6.40;;;5.47;;
10641;SDS011;5369;49.586;8.646;2022-10-16T15:16:41;6.63;;;4.97;;
10641;SDS011;5369;49.586;8.646;2022-10-16T15:19:06;5.20;;;3.40;;
10641;SDS011;5369;49.586;8.646;2022-10-16T15:21:32;5.20;;;3.33;;
10641;SDS011;5369;49.586;8.646;2022-10-16T15:23:59;5.47;;;4.30;;
10641;SDS011;5369;49.586;8.646;2022-10-16T15:26:26;5.83;;;4.20;;
10641;SDS011;5369;49.586;8.646;2022-10-16T15:28:52;3.80;;;3.30;;
10641;SDS011;5369;49.586;8.646;2022-10-16T15:31:19;3.67;;;2.80;;
10641;SDS011;5369;49.586;8.646;2022-10-16T15:33:49;4.40;;;2.50;;
10641;SDS011;5369;49.586;8.646;2022-10-16T15:36:28;3.73;;;2.77;;
10641;SDS011;5369;49.586;8.646;2022-10-16T15:38:55;5.53;;;3.70;;
10641;SDS011;5369;49.586;8.646;2022-10-16T15:41:21;14.67;;;10.47;;
10641;SDS011;5369;49.586;8.646;2022-10-16T15:43:48;7.70;;;5.50;;
10641;SDS011;5369;49.586;8.646;2022-10-16T15:46:14;8.20;;;6.67;;
10641;SDS011;5369;49.586;8.646;2022-10-16T15:48:47;9.83;;;6.13;;
10641;SDS011;5369;49.586;8.646;2022-10-16T15:51:15;7.87;;;5.60;;
10641;SDS011;5369;49.586;8.646;2022-10-16T15:53:42;7.13;;;6.13;;
10641;SDS011;5369;49.586;8.646;2022-10-16T15:56:08;8.30;;;6.13;;
10641;SDS011;5369;49.586;8.646;2022-10-16T15:58:37;8.10;;;5.63;;
10641;SDS011;5369;49.586;8.646;2022-10-16T16:01:07;6.40;;;5.57;;
10641;SDS011;5369;49.586;8.646;2022-10-16T16:03:35;7.87;;;5.40;;
10641;SDS011;5369;49.586;8.646;2022-10-16T16:06:04;7.73;;;6.37;;
10641;SDS011;5369;49.586;8.646;2022-10-16T16:08:32;9.57;;;6.60;;
10641;SDS011;5369;49.586;8.646;2022-10-16T16:10:59;9.43;;;6.47;;
10641;SDS011;5369;49.586;8.646;2022-10-16T16:13:29;8.43;;;5.33;;
10641;SDS011;5369;49.586;8.646;2022-10-16T16:15:55;8.60;;;4.40;;
10641;SDS011;5369;49.586;8.646;2022-10-16T16:18:21;7.67;;;4.80;;
10641;SDS011;5369;49.586;8.646;2022-10-16T16:20:49;6.93;;;3.50;;
10641;SDS011;5369;49.586;8.646;2022-10-16T16:23:15;6.77;;;4.00;;
10641;SDS011;5369;49.586;8.646;2022-10-16T16:25:41;4.73;;;4.10;;
10641;SDS011;5369;49.586;8.646;2022-10-16T16:28:07;9.53;;;4.60;;
10641;SDS011;5369;49.586;8.646;2022-10-16T16:30:35;8.97;;;5.10;;
10641;SDS011;5369;49.586;8.646;2022-10-16T16:33:02;6.27;;;5.57;;
10641;SDS011;5369;49.586;8.646;2022-10-16T16:35:28;7.93;;;6.03;;
10641;SDS011;5369;49.586;8.646;2022-10-16T16:37:54;8.43;;;5.83;;
10641;SDS011;5369;49.586;8.646;2022-10-16T16:40:20;7.23;;;5.33;;
10641;SDS011;5369;49.586;8.646;2022-10-16T16:42:47;5.10;;;4.07;;
10641;SDS011;5369;49.586;8.646;2022-10-16T16:45:16;5.57;;;4.23;;
10641;SDS011;5369;49.586;8.646;2022-10-16T16:47:41;5.07;;;4.57;;
10641;SDS011;5369;49.586;8.646;2022-10-16T16:50:07;5.97;;;3.70;;
10641;SDS011;5369;49.586;8.646;2022-10-16T16:52:34;5.40;;;3.10;;
10641;SDS011;5369;49.586;8.646;2022-10-16T16:55:00;6.07;;;4.30;;
10641;SDS011;5369;49.586;8.646;2022-10-16T16:57:26;11.60;;;5.50;;
10641;SDS011;5369;49.586;8.646;2022-10-16T16:59:52;5.20;;;4.33;;
10641;SDS011;5369;49.586;8.646;2022-10-16T17:02:18;7.70;;;7.00;;
10641;SDS011;5369;49.586;8.646;2022-10-16T17:04:44;22.77;;;20.77;;